createdAt,value
2022-09-09T00:00:41.079Z,18.88
2022-09-09T00:03:18.632Z,18.90
2022-09-09T00:06:04.487Z,18.88
2022-09-09T00:09:00.680Z,18.80
2022-09-09T00:11:44.606Z,18.84
2022-09-09T00:14:18.868Z,18.72
2022-09-09T00:16:54.479Z,18.56
2022-09-09T00:19:30.046Z,18.69
2022-09-09T00:22:27.372Z,18.79
2022-09-09T00:24:56.213Z,18.76
2022-09-09T00:27:30.880Z,18.83
2022-09-09T00:30:02.725Z,18.86
2022-09-09T00:32:31.109Z,18.91
2022-09-09T00:35:06.220Z,18.87
2022-09-09T00:37:33.281Z,18.86
2022-09-09T00:40:07.752Z,18.49
2022-09-09T00:42:45.569Z,18.47
2022-09-09T00:45:38.522Z,18.50
2022-09-09T00:48:12.216Z,18.67
2022-09-09T00:51:01.801Z,18.74
2022-09-09T00:53:55.385Z,18.70
2022-09-09T00:56:28.570Z,18.68
2022-09-09T00:59:17.506Z,18.73
2022-09-09T01:01:44.031Z,18.83
2022-09-09T01:04:17.463Z,18.80
2022-09-09T01:06:47.145Z,18.82
2022-09-09T01:09:31.118Z,18.69
2022-09-09T01:12:17.436Z,18.62
2022-09-09T01:14:52.952Z,18.60
2022-09-09T01:17:26.552Z,18.72
2022-09-09T01:20:01.981Z,18.78
2022-09-09T01:22:46.401Z,18.74
2022-09-09T01:25:50.445Z,18.67
2022-09-09T01:28:27.743Z,18.60
2022-09-09T01:30:55.943Z,18.71
2022-09-09T01:33:22.440Z,18.62
2022-09-09T01:36:15.389Z,18.60
2022-09-09T01:38:42.107Z,18.64
2022-09-09T01:41:08.540Z,18.65
2022-09-09T01:43:35.045Z,18.70
2022-09-09T01:46:03.516Z,18.61
2022-09-09T01:48:32.423Z,18.67
2022-09-09T01:50:58.861Z,18.59
2022-09-09T01:53:25.474Z,18.58
2022-09-09T01:55:54.569Z,18.60
2022-09-09T01:58:23.926Z,18.47
2022-09-09T02:01:24.491Z,18.54
2022-09-09T02:03:54.594Z,18.31
2022-09-09T02:06:34.761Z,18.51
2022-09-09T02:09:05.384Z,18.53
2022-09-09T02:11:33.054Z,18.59
2022-09-09T02:14:05.173Z,18.56
2022-09-09T02:16:55.590Z,18.59
2022-09-09T02:19:37.651Z,18.55
2022-09-09T02:22:05.116Z,18.55
2022-09-09T02:24:35.798Z,18.55
2022-09-09T02:27:07.379Z,18.48
2022-09-09T02:29:37.528Z,18.40
2022-09-09T02:32:08.317Z,18.38
2022-09-09T02:34:40.626Z,18.34
2022-09-09T02:37:10.623Z,18.34
2022-09-09T02:39:37.261Z,18.12
2022-09-09T02:42:05.420Z,18.37
2022-09-09T02:44:32.064Z,18.44
2022-09-09T02:47:19.730Z,18.56
2022-09-09T02:50:10.508Z,18.59
2022-09-09T02:52:47.943Z,18.50
2022-09-09T02:55:38.660Z,18.24
2022-09-09T02:58:08.795Z,18.41
2022-09-09T03:00:36.980Z,18.37
2022-09-09T03:03:05.249Z,18.50
2022-09-09T03:05:31.714Z,18.35
2022-09-09T03:07:58.458Z,18.39
2022-09-09T03:10:25.150Z,18.45
2022-09-09T03:12:51.600Z,18.42
2022-09-09T03:15:18.111Z,18.38
2022-09-09T03:17:44.490Z,18.29
2022-09-09T03:20:11.121Z,18.24
2022-09-09T03:22:37.473Z,18.34
2022-09-09T03:25:04.254Z,18.46
2022-09-09T03:27:30.781Z,18.41
2022-09-09T03:29:57.170Z,18.43
2022-09-09T03:32:23.576Z,18.37
2022-09-09T03:34:53.083Z,18.15
2022-09-09T03:37:20.858Z,18.30
2022-09-09T03:39:47.286Z,18.38
2022-09-09T03:42:19.572Z,18.42
2022-09-09T03:44:50.855Z,18.34
2022-09-09T03:47:22.675Z,18.40
2022-09-09T03:49:49.292Z,18.44
2022-09-09T03:52:19.355Z,18.02
2022-09-09T03:54:48.852Z,18.10
2022-09-09T03:57:17.691Z,18.36
2022-09-09T03:59:44.735Z,18.30
2022-09-09T04:02:11.257Z,18.41
2022-09-09T04:04:37.694Z,18.37
2022-09-09T04:07:06.978Z,18.33
2022-09-09T04:09:33.571Z,18.45
2022-09-09T04:11:59.998Z,18.47
2022-09-09T04:14:29.624Z,18.48
2022-09-09T04:16:58.218Z,18.46
2022-09-09T04:19:24.730Z,18.47
2022-09-09T04:21:52.544Z,18.32
2022-09-09T04:24:19.844Z,18.44
2022-09-09T04:26:46.454Z,18.50
2022-09-09T04:29:12.914Z,18.53
2022-09-09T04:31:42.879Z,18.51
2022-09-09T04:34:12.552Z,18.50
2022-09-09T04:36:40.132Z,18.42
2022-09-09T04:39:07.106Z,18.28
2022-09-09T04:41:33.577Z,18.47
2022-09-09T04:44:01.654Z,18.35
2022-09-09T04:46:28.224Z,18.21
2022-09-09T04:48:54.750Z,18.49
2022-09-09T04:51:21.427Z,18.49
2022-09-09T04:53:48.521Z,18.72
2022-09-09T04:56:16.660Z,18.74
2022-09-09T05:01:24.060Z,18.87
2022-09-09T05:03:50.865Z,18.93
2022-09-09T05:06:19.225Z,18.94
2022-09-09T05:08:46.237Z,19.03
2022-09-09T05:11:16.395Z,18.87
2022-09-09T05:13:42.923Z,18.53
2022-09-09T05:16:12.057Z,18.90
2022-09-09T05:18:40.084Z,18.88
2022-09-09T05:21:07.316Z,18.77
2022-09-09T05:23:35.078Z,18.71
2022-09-09T05:26:02.110Z,18.91
2022-09-09T05:28:29.096Z,18.60
2022-09-09T05:31:08.968Z,18.59
2022-09-09T05:33:36.645Z,18.84
2022-09-09T05:36:08.916Z,19.06
2022-09-09T05:38:35.950Z,19.28
2022-09-09T05:41:04.247Z,19.49
2022-09-09T05:43:30.989Z,19.63
2022-09-09T05:46:05.326Z,19.33
2022-09-09T05:48:33.369Z,19.50
2022-09-09T05:51:00.517Z,19.47
2022-09-09T05:53:27.630Z,19.37
2022-09-09T05:56:15.202Z,19.15
2022-09-09T05:58:44.711Z,19.03
2022-09-09T06:01:16.615Z,19.16
2022-09-09T06:03:45.021Z,19.03
2022-09-09T06:06:18.107Z,19.14
2022-09-09T06:08:46.213Z,18.92
2022-09-09T06:11:18.701Z,19.03
2022-09-09T06:13:45.289Z,19.39
2022-09-09T06:16:13.626Z,19.72
2022-09-09T06:18:40.716Z,19.51
2022-09-09T06:21:12.166Z,19.43
2022-09-09T06:23:41.466Z,19.69
2022-09-09T06:26:19.037Z,19.65
2022-09-09T06:28:50.742Z,19.83
2022-09-09T06:31:24.864Z,19.96
2022-09-09T06:33:55.999Z,20.23
2022-09-09T06:36:24.921Z,20.52
2022-09-09T06:38:51.541Z,20.38
2022-09-09T06:41:20.222Z,20.08
2022-09-09T06:43:47.607Z,20.82
2022-09-09T06:46:17.476Z,20.60
2022-09-09T06:48:45.449Z,20.96
2022-09-09T06:51:14.843Z,21.12
2022-09-09T06:53:43.363Z,21.25
2022-09-09T06:56:25.458Z,20.97
2022-09-09T06:58:53.498Z,20.80
2022-09-09T07:01:22.697Z,20.66
2022-09-09T07:03:51.527Z,20.79
2022-09-09T07:06:21.563Z,21.01
2022-09-09T07:08:56.607Z,21.54
2022-09-09T07:11:27.780Z,21.61
2022-09-09T07:13:55.256Z,21.64
2022-09-09T07:16:26.336Z,22.02
2022-09-09T07:18:53.654Z,22.14
2022-09-09T07:21:22.543Z,21.55
2022-09-09T07:23:49.630Z,22.42
2022-09-09T07:26:20.144Z,22.84
2022-09-09T07:28:47.214Z,23.17
2022-09-09T07:31:19.340Z,22.71
2022-09-09T07:33:46.278Z,22.45
2022-09-09T07:36:18.922Z,23.23
2022-09-09T07:38:47.166Z,22.79
2022-09-09T07:41:25.715Z,23.83
2022-09-09T07:43:54.847Z,23.18
2022-09-09T07:46:23.744Z,22.98
2022-09-09T07:48:52.861Z,23.71
2022-09-09T07:51:31.228Z,23.98
2022-09-09T07:54:05.811Z,23.85
2022-09-09T07:56:33.683Z,23.97
2022-09-09T07:59:00.726Z,25.03
2022-09-09T08:01:30.883Z,24.38
2022-09-09T08:04:05.873Z,25.26
2022-09-09T08:06:35.424Z,26.21
2022-09-09T08:09:01.990Z,26.56
2022-09-09T08:11:29.995Z,27.40
2022-09-09T08:14:02.071Z,27.73
2022-09-09T08:16:32.512Z,28.84
2022-09-09T08:18:59.928Z,29.46
2022-09-09T08:21:32.683Z,28.82
2022-09-09T08:24:01.015Z,28.61
2022-09-09T08:26:32.896Z,27.41
2022-09-09T08:29:01.620Z,26.59
2022-09-09T08:31:39.425Z,26.55
2022-09-09T08:34:07.213Z,27.17
2022-09-09T08:36:36.931Z,26.66
2022-09-09T08:39:05.230Z,26.40
2022-09-09T08:42:10.279Z,26.64
2022-09-09T08:44:49.159Z,26.93
2022-09-09T08:47:40.244Z,26.48
2022-09-09T08:50:25.621Z,26.03
2022-09-09T08:53:11.467Z,26.10
2022-09-09T08:55:56.226Z,25.69
2022-09-09T08:58:25.397Z,26.29
2022-09-09T09:00:52.571Z,25.78
2022-09-09T09:03:36.234Z,26.46
2022-09-09T09:06:17.286Z,26.15
2022-09-09T09:08:55.785Z,26.31
2022-09-09T09:11:23.401Z,24.59
2022-09-09T09:13:58.910Z,25.56
2022-09-09T09:16:36.252Z,25.03
2022-09-09T09:19:02.919Z,25.33
2022-09-09T09:21:42.811Z,25.46
2022-09-09T09:24:25.186Z,24.95
2022-09-09T09:26:51.953Z,25.49
2022-09-09T09:29:20.807Z,25.47
2022-09-09T09:31:52.469Z,25.55
2022-09-09T09:34:19.095Z,25.44
2022-09-09T09:36:54.228Z,25.10
2022-09-09T09:42:21.747Z,25.58
2022-09-09T09:44:50.682Z,26.04
2022-09-09T09:47:21.483Z,25.43
2022-09-09T09:50:00.521Z,26.06
2022-09-09T09:52:29.612Z,26.09
2022-09-09T09:54:58.203Z,25.32
2022-09-09T09:57:30.052Z,26.45
2022-09-09T10:00:14.591Z,26.63
2022-09-09T10:02:44.217Z,26.19
2022-09-09T10:05:27.545Z,26.08
2022-09-09T10:08:17.509Z,25.78
2022-09-09T10:11:35.253Z,26.29
2022-09-09T10:14:13.641Z,26.89
2022-09-09T10:17:05.543Z,26.10
2022-09-09T10:19:34.949Z,26.57
2022-09-09T10:22:32.971Z,26.54
2022-09-09T10:25:13.581Z,26.95
2022-09-09T10:28:06.338Z,26.80
2022-09-09T10:31:10.324Z,25.48
2022-09-09T10:34:15.420Z,25.70
2022-09-09T10:36:47.978Z,26.18
2022-09-09T10:39:20.462Z,25.71
2022-09-09T10:41:56.992Z,26.12
2022-09-09T10:44:47.798Z,26.00
2022-09-09T10:47:51.892Z,25.94
2022-09-09T10:53:37.616Z,26.62
2022-09-09T10:56:24.926Z,25.76
2022-09-09T10:59:13.267Z,25.59
2022-09-09T11:01:46.455Z,25.51
2022-09-09T11:04:28.730Z,25.67
2022-09-09T11:06:56.982Z,26.20
2022-09-09T11:09:31.879Z,26.03
2022-09-09T11:12:01.369Z,25.19
2022-09-09T11:14:41.299Z,25.77
2022-09-09T11:17:15.069Z,26.05
2022-09-09T11:19:44.552Z,26.41
2022-09-09T11:22:39.687Z,25.86
2022-09-09T11:25:16.529Z,26.23
2022-09-09T11:28:23.353Z,25.70
2022-09-09T11:30:58.674Z,25.47
2022-09-09T11:33:44.280Z,25.93
2022-09-09T11:36:29.167Z,26.03
2022-09-09T11:39:31.137Z,25.96
2022-09-09T11:42:26.885Z,25.62
2022-09-09T11:45:00.031Z,24.14
2022-09-09T11:47:32.090Z,24.69
2022-09-09T11:50:09.105Z,25.03
2022-09-09T11:52:43.545Z,25.53
2022-09-09T11:55:27.420Z,25.60
2022-09-09T11:58:18.257Z,25.83
2022-09-09T12:00:49.450Z,25.34
2022-09-09T12:03:37.187Z,24.68
2022-09-09T12:06:33.775Z,25.63
2022-09-09T12:09:18.278Z,25.66
2022-09-09T12:11:44.678Z,25.83
2022-09-09T12:14:37.354Z,25.07
2022-09-09T12:17:16.607Z,25.64
2022-09-09T12:19:43.165Z,26.45
2022-09-09T12:22:34.642Z,26.45
2022-09-09T12:25:19.159Z,26.66
2022-09-09T12:28:03.748Z,26.39
2022-09-09T12:30:37.159Z,25.88
2022-09-09T12:33:11.680Z,26.44
2022-09-09T12:35:39.633Z,26.10
2022-09-09T12:38:10.287Z,26.17
2022-09-09T12:40:36.779Z,26.51
2022-09-09T12:43:18.640Z,26.71
2022-09-09T12:45:46.239Z,26.30
2022-09-09T12:48:16.535Z,26.55
2022-09-09T12:50:49.801Z,26.53
2022-09-09T12:53:26.211Z,26.01
2022-09-09T12:55:59.761Z,25.71
2022-09-09T12:58:29.235Z,26.09
2022-09-09T13:01:00.724Z,26.07
2022-09-09T13:03:28.237Z,26.84
2022-09-09T13:06:01.218Z,27.02
2022-09-09T13:08:28.154Z,26.39
2022-09-09T13:11:03.137Z,26.96
2022-09-09T13:13:38.907Z,25.42
2022-09-09T13:16:09.409Z,26.41
2022-09-09T13:18:39.149Z,26.18
2022-09-09T13:21:05.975Z,25.90
2022-09-09T13:23:36.097Z,25.47
2022-09-09T13:26:07.150Z,26.28
2022-09-09T13:28:35.212Z,26.38
2022-09-09T13:31:05.970Z,26.65
2022-09-09T13:33:39.256Z,26.19
2022-09-09T13:36:08.853Z,26.45
2022-09-09T13:39:03.687Z,26.55
2022-09-09T13:41:34.706Z,26.38
2022-09-09T13:44:02.446Z,26.41
2022-09-09T13:46:42.046Z,26.53
2022-09-09T13:49:11.091Z,26.75
2022-09-09T13:51:43.105Z,26.13
2022-09-09T13:54:11.164Z,25.90
2022-09-09T13:56:39.604Z,26.11
2022-09-09T13:59:10.474Z,26.21
2022-09-09T14:01:38.472Z,26.83
2022-09-09T14:04:07.467Z,26.21
2022-09-09T14:06:38.169Z,25.93
2022-09-09T14:09:05.727Z,25.71
2022-09-09T14:11:32.105Z,25.65
2022-09-09T14:13:58.501Z,26.30
2022-09-09T14:16:25.403Z,25.81
2022-09-09T14:18:52.513Z,25.31
2022-09-09T14:21:18.994Z,25.28
2022-09-09T14:23:45.592Z,25.61
2022-09-09T14:26:12.036Z,25.38
2022-09-09T14:28:54.244Z,24.99
2022-09-09T14:31:21.935Z,25.74
2022-09-09T14:33:48.348Z,25.71
2022-09-09T14:36:16.049Z,25.99
2022-09-09T14:38:43.712Z,25.82
2022-09-09T14:41:17.849Z,25.94
2022-09-09T14:43:45.181Z,25.42
2022-09-09T14:46:14.766Z,25.56
2022-09-09T14:48:41.801Z,25.52
2022-09-09T14:51:08.196Z,25.60
2022-09-09T14:53:34.831Z,25.56
2022-09-09T14:56:09.200Z,25.04
2022-09-09T14:58:36.228Z,25.21
2022-09-09T15:01:14.525Z,24.43
2022-09-09T15:03:42.861Z,24.85
2022-09-09T15:06:11.898Z,25.48
2022-09-09T15:08:42.451Z,25.66
2022-09-09T15:11:13.740Z,24.81
2022-09-09T15:13:42.162Z,24.38
2022-09-09T15:16:11.553Z,24.08
2022-09-09T15:18:43.606Z,25.30
2022-09-09T15:21:15.808Z,25.53
2022-09-09T15:23:42.820Z,25.64
2022-09-09T15:26:10.142Z,25.58
2022-09-09T15:28:38.876Z,25.70
2022-09-09T15:31:15.465Z,25.70
2022-09-09T15:33:42.415Z,25.05
2022-09-09T15:36:23.580Z,25.22
2022-09-09T15:38:51.232Z,25.64
2022-09-09T15:41:19.638Z,25.55
2022-09-09T15:43:48.004Z,25.56
2022-09-09T15:46:31.614Z,25.16
2022-09-09T15:49:03.735Z,24.75
2022-09-09T15:51:42.747Z,25.02
2022-09-09T15:54:17.698Z,25.33
2022-09-09T15:56:45.024Z,25.74
2022-09-09T15:59:12.156Z,25.78
2022-09-09T16:01:40.547Z,25.86
2022-09-09T16:04:07.383Z,25.73
2022-09-09T16:06:34.417Z,24.87
2022-09-09T16:09:02.976Z,24.65
2022-09-09T16:11:33.293Z,25.74
2022-09-09T16:14:00.363Z,25.34
2022-09-09T16:16:29.875Z,24.93
2022-09-09T16:19:02.167Z,25.07
2022-09-09T16:21:35.271Z,24.90
2022-09-09T16:24:03.515Z,24.76
2022-09-09T16:26:32.727Z,25.09
2022-09-09T16:29:00.449Z,24.54
2022-09-09T16:31:28.546Z,25.06
2022-09-09T16:33:55.151Z,25.08
2022-09-09T16:36:24.671Z,25.51
2022-09-09T16:39:01.834Z,25.78
2022-09-09T16:41:30.136Z,25.61
2022-09-09T16:44:03.246Z,25.35
2022-09-09T16:46:31.884Z,24.83
2022-09-09T16:48:59.826Z,25.34
2022-09-09T16:51:29.686Z,25.18
2022-09-09T16:53:58.692Z,25.46
2022-09-09T16:56:27.911Z,25.48
2022-09-09T16:58:57.153Z,25.10
2022-09-09T17:01:25.301Z,25.24
2022-09-09T17:04:01.425Z,25.04
2022-09-09T17:06:29.875Z,25.16
2022-09-09T17:08:58.547Z,25.15
2022-09-09T17:11:25.217Z,25.11
2022-09-09T17:13:53.258Z,24.78
2022-09-09T17:16:23.144Z,24.92
2022-09-09T17:18:51.434Z,24.75
2022-09-09T17:21:20.747Z,24.93
2022-09-09T17:23:47.533Z,24.87
2022-09-09T17:26:16.633Z,24.65
2022-09-09T17:28:44.110Z,24.18
2022-09-09T17:31:12.153Z,24.58
2022-09-09T17:33:40.455Z,24.56
2022-09-09T17:36:08.984Z,24.39
2022-09-09T17:38:35.453Z,24.41
2022-09-09T17:41:07.771Z,23.69
2022-09-09T17:43:35.102Z,24.12
2022-09-09T17:46:14.344Z,24.18
2022-09-09T17:48:41.768Z,24.20
2022-09-09T17:51:13.112Z,24.10
2022-09-09T17:53:48.613Z,24.11
2022-09-09T17:56:17.413Z,24.06
2022-09-09T17:58:45.272Z,24.00
2022-09-09T18:01:20.797Z,23.99
2022-09-09T18:03:49.335Z,23.77
2022-09-09T18:06:20.655Z,23.76
2022-09-09T18:09:01.324Z,23.20
2022-09-09T18:11:31.923Z,23.54
2022-09-09T18:14:00.911Z,23.31
2022-09-09T18:16:29.417Z,23.28
2022-09-09T18:18:58.381Z,23.52
2022-09-09T18:21:27.572Z,23.59
2022-09-09T18:23:54.184Z,23.56
2022-09-09T18:26:24.243Z,23.49
2022-09-09T18:28:52.847Z,23.45
2022-09-09T18:31:23.186Z,23.61
2022-09-09T18:33:58.954Z,23.69
2022-09-09T18:36:28.173Z,23.85
2022-09-09T18:38:56.683Z,23.90
2022-09-09T18:41:26.903Z,23.47
2022-09-09T18:43:56.112Z,24.14
2022-09-09T18:46:23.534Z,24.25
2022-09-09T18:48:50.607Z,24.11
2022-09-09T18:51:23.159Z,24.50
2022-09-09T18:53:58.185Z,24.49
2022-09-09T18:56:24.744Z,24.31
2022-09-09T18:58:53.035Z,23.50
2022-09-09T19:01:20.190Z,24.45
2022-09-09T19:03:46.814Z,24.50
2022-09-09T19:06:16.631Z,24.61
2022-09-09T19:08:45.131Z,24.62
2022-09-09T19:11:18.971Z,24.36
2022-09-09T19:13:58.095Z,24.40
2022-09-09T19:16:29.208Z,24.45
2022-09-09T19:18:58.410Z,24.25
2022-09-09T19:21:28.126Z,24.15
2022-09-09T19:24:01.121Z,24.40
2022-09-09T19:26:29.666Z,24.33
2022-09-09T19:28:59.070Z,24.36
2022-09-09T19:31:27.877Z,24.38
2022-09-09T19:33:57.883Z,24.41
2022-09-09T19:36:27.570Z,24.31
2022-09-09T19:38:55.257Z,24.26
2022-09-09T19:41:25.461Z,24.34
2022-09-09T19:43:54.890Z,24.37
2022-09-09T19:46:21.341Z,24.28
2022-09-09T19:48:48.241Z,24.31
2022-09-09T19:51:16.866Z,24.44
2022-09-09T19:53:49.619Z,24.23
2022-09-09T19:56:17.635Z,24.27
2022-09-09T19:58:47.379Z,24.26
2022-09-09T20:01:17.815Z,24.35
2022-09-09T20:03:47.743Z,24.18
2022-09-09T20:06:16.981Z,24.08
2022-09-09T20:08:48.766Z,24.10
2022-09-09T20:11:16.974Z,24.18
2022-09-09T20:13:44.570Z,24.13
2022-09-09T20:16:14.460Z,23.90
2022-09-09T20:18:43.365Z,23.70
2022-09-09T20:21:16.109Z,23.60
2022-09-09T20:23:43.883Z,23.51
2022-09-09T20:26:12.915Z,23.37
2022-09-09T20:28:41.105Z,23.22
2022-09-09T20:31:14.869Z,23.14
2022-09-09T20:33:43.031Z,22.99
2022-09-09T20:36:39.144Z,22.96
2022-09-09T20:39:10.958Z,22.96
2022-09-09T20:41:40.006Z,22.94
2022-09-09T20:44:18.252Z,22.89
2022-09-09T20:46:48.190Z,22.79
2022-09-09T20:49:16.540Z,22.62
2022-09-09T20:51:43.418Z,22.59
2022-09-09T20:54:13.798Z,22.68
2022-09-09T20:56:42.338Z,22.70
2022-09-09T20:59:12.347Z,22.54
2022-09-09T21:01:39.967Z,22.58
2022-09-09T21:04:07.853Z,22.66
2022-09-09T21:06:34.404Z,22.54
2022-09-09T21:09:00.929Z,22.37
2022-09-09T21:11:27.342Z,22.59
2022-09-09T21:13:53.767Z,22.49
2022-09-09T21:16:21.154Z,22.60
2022-09-09T21:18:50.699Z,22.06
2022-09-09T21:21:21.347Z,22.32
2022-09-09T21:23:49.060Z,22.50
2022-09-09T21:26:17.736Z,22.51
2022-09-09T21:28:44.170Z,22.55
2022-09-09T21:31:16.231Z,22.48
2022-09-09T21:33:43.138Z,22.57
2022-09-09T21:36:12.090Z,22.54
2022-09-09T21:38:42.074Z,22.49
2022-09-09T21:41:13.027Z,22.47
2022-09-09T21:43:41.876Z,22.09
2022-09-09T21:46:14.655Z,22.37
2022-09-09T21:48:41.415Z,22.37
2022-09-09T21:51:12.797Z,22.12
2022-09-09T21:53:40.017Z,22.13
2022-09-09T21:56:10.643Z,21.56
2022-09-09T21:58:37.724Z,21.98
2022-09-09T22:01:16.307Z,21.62
2022-09-09T22:03:44.185Z,21.82
2022-09-09T22:06:16.195Z,20.99
2022-09-09T22:08:43.492Z,20.64
2022-09-09T22:11:18.857Z,21.55
2022-09-09T22:13:48.285Z,21.81
2022-09-09T22:16:17.784Z,21.52
2022-09-09T22:18:45.085Z,21.54
2022-09-09T22:21:14.436Z,21.63
2022-09-09T22:23:40.941Z,21.70
2022-09-09T22:26:08.679Z,21.81
2022-09-09T22:28:36.373Z,21.78
2022-09-09T22:31:03.063Z,21.78
2022-09-09T22:33:29.862Z,21.76
2022-09-09T22:35:56.260Z,21.29
2022-09-09T22:38:22.764Z,21.62
2022-09-09T22:40:49.604Z,20.81
2022-09-09T22:43:19.313Z,21.42
2022-09-09T22:45:46.068Z,21.19
2022-09-09T22:48:14.401Z,21.21
2022-09-09T22:50:42.543Z,21.41
2022-09-09T22:53:13.111Z,21.42
2022-09-09T22:55:39.615Z,21.29
2022-09-09T22:58:06.169Z,21.01
2022-09-09T23:00:32.605Z,21.19
2022-09-09T23:02:58.996Z,21.04
2022-09-09T23:05:27.450Z,21.16
2022-09-09T23:07:55.838Z,21.20
2022-09-09T23:10:22.545Z,21.05
2022-09-09T23:12:48.997Z,21.10
2022-09-09T23:15:15.465Z,21.04
2022-09-09T23:17:42.157Z,20.99
2022-09-09T23:20:10.555Z,21.11
2022-09-09T23:22:39.084Z,21.10
2022-09-09T23:25:06.086Z,21.09
2022-09-09T23:27:33.482Z,21.08
2022-09-09T23:29:59.875Z,21.09
2022-09-09T23:32:26.454Z,21.02
2022-09-09T23:34:52.833Z,20.97
2022-09-09T23:37:19.255Z,20.99
2022-09-09T23:39:45.656Z,20.89
2022-09-09T23:42:12.346Z,20.91
2022-09-09T23:44:39.415Z,20.82
2022-09-09T23:47:07.396Z,20.86
2022-09-09T23:49:35.747Z,20.89
2022-09-09T23:52:05.357Z,20.81
2022-09-09T23:54:35.533Z,20.83
2022-09-09T23:57:03.613Z,20.78
2022-09-09T23:59:31.044Z,20.76
